createdAt,value
2023-05-21T00:00:02.978Z,4.72
2023-05-21T00:02:31.393Z,4.35
2023-05-21T00:05:00.153Z,4.13
2023-05-21T00:07:28.635Z,4.60
2023-05-21T00:09:57.011Z,4.28
2023-05-21T00:12:27.236Z,4.10
2023-05-21T00:14:55.883Z,4.75
2023-05-21T00:17:24.419Z,4.70
2023-05-21T00:19:52.907Z,4.20
2023-05-21T00:22:21.534Z,5.00
2023-05-21T00:24:49.824Z,4.57
2023-05-21T00:27:18.231Z,4.95
2023-05-21T00:29:47.857Z,4.47
2023-05-21T00:32:16.111Z,4.50
2023-05-21T00:34:44.715Z,4.70
2023-05-21T00:37:15.350Z,4.68
2023-05-21T00:39:43.604Z,4.40
2023-05-21T00:42:12.489Z,5.00
2023-05-21T00:44:41.378Z,4.60
2023-05-21T00:47:11.103Z,4.35
2023-05-21T00:49:39.573Z,5.05
2023-05-21T00:52:08.570Z,5.35
2023-05-21T00:54:37.167Z,5.13
2023-05-21T00:57:06.457Z,5.30
2023-05-21T00:59:34.937Z,5.32
2023-05-21T01:02:04.494Z,5.70
2023-05-21T01:04:34.147Z,5.45
2023-05-21T01:07:02.543Z,4.95
2023-05-21T01:09:30.717Z,5.50
2023-05-21T01:12:01.059Z,5.47
2023-05-21T01:14:29.528Z,5.13
2023-05-21T01:16:58.465Z,5.10
2023-05-21T01:19:27.175Z,5.10
2023-05-21T01:22:02.001Z,5.00
2023-05-21T01:24:31.850Z,5.00
2023-05-21T01:27:00.531Z,5.15
2023-05-21T01:29:28.739Z,5.40
2023-05-21T01:32:04.434Z,5.63
2023-05-21T01:34:38.048Z,5.60
2023-05-21T01:37:16.055Z,5.55
2023-05-21T01:39:53.208Z,5.70
2023-05-21T01:42:25.429Z,5.70
2023-05-21T01:44:57.013Z,5.70
2023-05-21T01:47:28.339Z,6.28
2023-05-21T01:49:57.810Z,6.05
2023-05-21T01:52:26.312Z,5.90
2023-05-21T01:54:57.931Z,5.97
2023-05-21T01:57:26.251Z,6.63
2023-05-21T01:59:55.325Z,6.80
2023-05-21T02:02:23.846Z,7.05
2023-05-21T02:04:52.290Z,7.00
2023-05-21T02:07:20.766Z,7.63
2023-05-21T02:09:49.365Z,7.25
2023-05-21T02:12:19.077Z,7.82
2023-05-21T02:14:50.727Z,7.97
2023-05-21T02:17:18.899Z,7.88
2023-05-21T02:19:47.087Z,7.70
2023-05-21T02:22:15.649Z,7.70
2023-05-21T02:24:44.039Z,6.90
2023-05-21T02:27:13.767Z,7.85
2023-05-21T02:29:43.798Z,7.90
2023-05-21T02:32:12.040Z,7.47
2023-05-21T02:34:42.464Z,8.15
2023-05-21T02:37:11.154Z,7.30
2023-05-21T02:39:39.435Z,8.13
2023-05-21T02:42:07.715Z,7.80
2023-05-21T02:44:36.492Z,7.80
2023-05-21T02:47:06.668Z,8.07
2023-05-21T02:49:35.079Z,7.90
2023-05-21T02:52:03.492Z,7.65
2023-05-21T02:54:31.822Z,8.13
2023-05-21T02:57:00.482Z,8.05
2023-05-21T02:59:29.050Z,8.48
2023-05-21T03:01:57.377Z,8.20
2023-05-21T03:04:28.561Z,8.82
2023-05-21T03:06:57.840Z,8.27
2023-05-21T03:09:26.336Z,8.30
2023-05-21T03:11:54.806Z,8.75
2023-05-21T03:14:23.472Z,8.85
2023-05-21T03:16:52.704Z,7.72
2023-05-21T03:19:21.569Z,8.93
2023-05-21T03:21:51.799Z,8.02
2023-05-21T03:24:20.188Z,8.27
2023-05-21T03:26:50.402Z,9.15
2023-05-21T03:29:18.805Z,8.82
2023-05-21T03:31:47.210Z,8.55
2023-05-21T03:34:16.234Z,8.88
2023-05-21T03:36:44.715Z,8.63
2023-05-21T03:39:14.668Z,8.50
2023-05-21T03:41:42.939Z,8.75
2023-05-21T03:44:11.347Z,8.45
2023-05-21T03:46:39.877Z,9.32
2023-05-21T03:49:08.070Z,9.15
2023-05-21T03:51:36.498Z,9.93
2023-05-21T03:54:04.929Z,9.25
2023-05-21T03:56:34.445Z,10.18
2023-05-21T03:59:02.709Z,10.13
2023-05-21T04:01:30.971Z,9.93
2023-05-21T04:03:59.242Z,10.80
2023-05-21T04:06:28.242Z,11.15
2023-05-21T04:08:56.842Z,10.50
2023-05-21T04:11:25.000Z,10.27
2023-05-21T04:13:54.739Z,11.20
2023-05-21T04:18:55.626Z,11.27
2023-05-21T04:21:24.169Z,11.60
2023-05-21T04:23:54.013Z,11.95
2023-05-21T04:26:23.229Z,11.55
2023-05-21T04:28:51.429Z,11.70
2023-05-21T04:31:21.191Z,11.20
2023-05-21T04:33:49.647Z,10.57
2023-05-21T04:36:18.373Z,11.32
2023-05-21T04:38:49.883Z,11.23
2023-05-21T04:41:19.291Z,11.43
2023-05-21T04:43:47.418Z,10.73
2023-05-21T04:46:15.679Z,11.57
2023-05-21T04:48:47.088Z,11.10
2023-05-21T04:51:15.371Z,10.95
2023-05-21T04:53:43.515Z,11.80
2023-05-21T04:56:12.110Z,10.68
2023-05-21T04:58:40.761Z,11.45
2023-05-21T05:01:09.113Z,10.60
2023-05-21T05:03:37.797Z,10.35
2023-05-21T05:06:08.871Z,10.65
2023-05-21T05:08:37.066Z,10.13
2023-05-21T05:11:05.564Z,9.98
2023-05-21T05:13:35.411Z,10.20
2023-05-21T05:16:03.684Z,10.15
2023-05-21T05:18:32.174Z,9.88
2023-05-21T05:21:00.601Z,10.38
2023-05-21T05:23:30.095Z,10.32
2023-05-21T05:25:58.737Z,10.30
2023-05-21T05:28:26.950Z,9.65
2023-05-21T05:30:55.601Z,9.02
2023-05-21T05:33:24.130Z,9.65
2023-05-21T05:35:52.675Z,9.30
2023-05-21T05:38:20.858Z,9.15
2023-05-21T05:40:50.679Z,9.20
2023-05-21T05:43:19.061Z,9.23
2023-05-21T05:45:47.491Z,9.10
2023-05-21T05:48:17.186Z,8.25
2023-05-21T05:50:46.479Z,7.95
2023-05-21T05:53:14.970Z,8.27
2023-05-21T05:55:43.325Z,8.63
2023-05-21T05:58:13.261Z,7.85
2023-05-21T06:00:41.441Z,7.78
2023-05-21T06:03:09.936Z,7.82
2023-05-21T06:05:38.886Z,7.80
2023-05-21T06:08:07.541Z,7.03
2023-05-21T06:10:35.833Z,7.30
2023-05-21T06:13:04.123Z,7.30
2023-05-21T06:15:35.492Z,7.00
2023-05-21T06:18:04.421Z,6.60
2023-05-21T06:20:32.857Z,6.90
2023-05-21T06:23:01.088Z,6.85
2023-05-21T06:25:29.297Z,6.65
2023-05-21T06:27:58.081Z,6.22
2023-05-21T06:30:26.331Z,6.70
2023-05-21T06:32:56.299Z,6.60
2023-05-21T06:35:24.911Z,6.10
2023-05-21T06:37:53.136Z,7.25
2023-05-21T06:40:21.982Z,7.05
2023-05-21T06:42:50.330Z,6.80
2023-05-21T06:45:18.509Z,7.30
2023-05-21T06:47:46.906Z,7.03
2023-05-21T06:50:16.693Z,6.65
2023-05-21T06:52:44.900Z,6.95
2023-05-21T06:55:13.350Z,6.68
2023-05-21T06:57:41.599Z,7.40
2023-05-21T07:00:10.870Z,6.68
2023-05-21T07:02:39.247Z,7.43
2023-05-21T07:05:08.094Z,6.65
2023-05-21T07:07:37.644Z,6.85
2023-05-21T07:10:06.962Z,7.72
2023-05-21T07:12:35.406Z,7.03
2023-05-21T07:15:03.822Z,7.72
2023-05-21T07:17:32.301Z,7.63
2023-05-21T07:20:00.619Z,7.40
2023-05-21T07:22:28.920Z,7.05
2023-05-21T07:24:58.592Z,7.55
2023-05-21T07:27:27.413Z,7.28
2023-05-21T07:29:55.665Z,7.22
2023-05-21T07:32:23.992Z,7.70
2023-05-21T07:34:54.214Z,7.55
2023-05-21T07:37:22.699Z,7.07
2023-05-21T07:39:50.918Z,7.78
2023-05-21T07:42:20.651Z,7.72
2023-05-21T07:44:48.870Z,8.82
2023-05-21T07:47:17.263Z,8.43
2023-05-21T07:49:45.645Z,7.97
2023-05-21T07:52:13.802Z,8.07
2023-05-21T07:54:42.151Z,8.20
2023-05-21T07:57:10.437Z,8.07
2023-05-21T07:59:39.971Z,7.20
2023-05-21T08:02:09.190Z,8.00
2023-05-21T08:04:40.861Z,7.72
2023-05-21T08:07:10.946Z,7.63
2023-05-21T08:09:39.184Z,8.30
2023-05-21T08:12:08.479Z,7.35
2023-05-21T08:14:36.834Z,7.72
2023-05-21T08:17:06.796Z,7.97
2023-05-21T08:19:35.039Z,7.80
2023-05-21T08:22:03.859Z,8.27
2023-05-21T08:24:32.150Z,8.00
2023-05-21T08:27:00.550Z,7.63
2023-05-21T08:29:29.037Z,7.93
2023-05-21T08:31:57.402Z,8.07
2023-05-21T08:34:27.048Z,8.68
2023-05-21T08:36:55.900Z,20.58
2023-05-21T08:39:24.063Z,24.40
2023-05-21T08:41:56.592Z,42.25
2023-05-21T08:44:28.383Z,8.80
2023-05-21T08:46:58.966Z,8.13
2023-05-21T08:49:31.923Z,8.38
2023-05-21T08:52:01.258Z,8.90
2023-05-21T08:54:29.903Z,8.02
2023-05-21T08:56:59.467Z,7.47
2023-05-21T08:59:28.700Z,8.35
2023-05-21T09:01:58.366Z,8.10
2023-05-21T09:04:29.521Z,8.50
2023-05-21T09:06:59.386Z,7.95
2023-05-21T09:09:34.051Z,8.15
2023-05-21T09:12:02.498Z,8.80
2023-05-21T09:14:31.499Z,8.15
2023-05-21T09:17:00.004Z,8.48
2023-05-21T09:19:32.395Z,8.30
2023-05-21T09:22:04.281Z,8.37
2023-05-21T09:24:36.062Z,9.10
2023-05-21T09:27:08.762Z,9.20
2023-05-21T09:29:37.726Z,8.85
2023-05-21T09:32:09.074Z,8.75
2023-05-21T09:34:39.087Z,9.48
2023-05-21T09:37:23.727Z,10.00
2023-05-21T09:39:56.194Z,18.20
2023-05-21T09:42:24.462Z,8.80
2023-05-21T09:44:54.085Z,9.45
2023-05-21T09:47:22.935Z,9.68
2023-05-21T09:49:52.604Z,10.15
2023-05-21T09:52:28.745Z,9.20
2023-05-21T09:54:57.013Z,9.68
2023-05-21T09:57:26.417Z,8.85
2023-05-21T09:59:56.134Z,9.00
2023-05-21T10:02:26.856Z,9.27
2023-05-21T10:04:58.003Z,9.20
2023-05-21T10:07:28.728Z,9.20
2023-05-21T10:09:59.524Z,9.50
2023-05-21T10:12:31.621Z,9.45
2023-05-21T10:15:02.350Z,9.52
2023-05-21T10:17:31.870Z,9.05
2023-05-21T10:20:02.560Z,10.02
2023-05-21T10:22:31.516Z,9.93
2023-05-21T10:25:01.123Z,10.07
2023-05-21T10:27:32.343Z,10.52
2023-05-21T10:30:01.666Z,10.63
2023-05-21T10:32:29.990Z,10.48
2023-05-21T10:35:01.347Z,11.40
2023-05-21T10:37:31.641Z,11.75
2023-05-21T10:39:59.904Z,11.30
2023-05-21T10:42:51.647Z,11.73
2023-05-21T10:45:28.317Z,12.05
2023-05-21T10:48:24.365Z,11.48
2023-05-21T10:51:19.960Z,11.10
2023-05-21T10:54:08.314Z,12.55
2023-05-21T10:56:41.649Z,11.63
2023-05-21T11:01:45.303Z,10.98
2023-05-21T11:04:15.817Z,11.40
2023-05-21T11:06:49.635Z,12.15
2023-05-21T11:09:20.049Z,11.90
2023-05-21T11:11:52.440Z,10.65
2023-05-21T11:14:36.300Z,11.23
2023-05-21T11:17:06.265Z,11.40
2023-05-21T11:19:38.156Z,12.05
2023-05-21T11:22:11.955Z,11.88
2023-05-21T11:24:42.612Z,12.25
2023-05-21T11:27:12.902Z,11.80
2023-05-21T11:29:44.162Z,11.38
2023-05-21T11:32:15.316Z,12.50
2023-05-21T11:34:47.017Z,13.43
2023-05-21T11:37:28.232Z,13.05
2023-05-21T11:40:16.708Z,13.63
2023-05-21T11:42:49.857Z,13.55
2023-05-21T11:45:20.507Z,13.43
2023-05-21T11:47:49.503Z,14.07
2023-05-21T11:50:18.650Z,13.82
2023-05-21T11:52:47.193Z,13.07
2023-05-21T11:55:17.438Z,13.32
2023-05-21T11:57:48.106Z,13.23
2023-05-21T12:00:17.604Z,13.32
2023-05-21T12:02:47.815Z,13.60
2023-05-21T12:05:16.498Z,14.75
2023-05-21T12:07:50.395Z,13.35
2023-05-21T12:10:23.313Z,12.68
2023-05-21T12:12:55.869Z,13.10
2023-05-21T12:15:25.932Z,12.90
2023-05-21T12:17:54.642Z,12.98
2023-05-21T12:20:24.008Z,12.15
2023-05-21T12:22:52.419Z,12.45
2023-05-21T12:25:22.942Z,12.20
2023-05-21T12:27:52.839Z,12.93
2023-05-21T12:30:22.109Z,12.00
2023-05-21T12:32:50.900Z,11.82
2023-05-21T12:35:24.201Z,12.27
2023-05-21T12:37:53.249Z,12.02
2023-05-21T12:40:22.962Z,11.90
2023-05-21T12:42:52.239Z,12.20
2023-05-21T12:45:22.815Z,12.30
2023-05-21T12:47:56.553Z,11.93
2023-05-21T12:50:25.318Z,12.18
2023-05-21T12:52:57.164Z,12.43
2023-05-21T12:55:27.601Z,13.15
2023-05-21T12:58:05.348Z,13.57
2023-05-21T13:00:34.854Z,12.52
2023-05-21T13:03:06.781Z,13.40
2023-05-21T13:05:35.908Z,13.07
2023-05-21T13:08:04.448Z,12.95
2023-05-21T13:10:34.273Z,13.30
2023-05-21T13:13:02.955Z,12.88
2023-05-21T13:15:31.609Z,12.82
2023-05-21T13:18:01.495Z,13.88
2023-05-21T13:20:30.292Z,13.05
2023-05-21T13:22:58.801Z,13.27
2023-05-21T13:25:29.327Z,13.88
2023-05-21T13:28:02.563Z,13.48
2023-05-21T13:30:31.318Z,13.60
2023-05-21T13:33:00.244Z,12.93
2023-05-21T13:35:28.836Z,14.40
2023-05-21T13:37:57.057Z,13.80
2023-05-21T13:40:25.493Z,13.30
2023-05-21T13:42:53.744Z,13.13
2023-05-21T13:45:29.131Z,12.63
2023-05-21T13:47:58.112Z,12.70
2023-05-21T13:50:26.900Z,14.25
2023-05-21T13:52:55.163Z,13.57
2023-05-21T13:55:24.030Z,12.30
2023-05-21T13:57:52.335Z,13.10
2023-05-21T14:00:22.166Z,12.25
2023-05-21T14:02:50.958Z,12.85
2023-05-21T14:05:19.501Z,12.55
2023-05-21T14:07:48.471Z,12.35
2023-05-21T14:10:17.191Z,12.65
2023-05-21T14:12:47.338Z,13.45
2023-05-21T14:15:17.288Z,12.30
2023-05-21T14:17:47.373Z,12.10
2023-05-21T14:20:15.647Z,12.40
2023-05-21T14:22:43.915Z,11.88
2023-05-21T14:25:12.761Z,12.48
2023-05-21T14:27:41.127Z,12.43
2023-05-21T14:30:10.640Z,12.05
2023-05-21T14:32:39.188Z,11.90
2023-05-21T14:35:09.745Z,12.07
2023-05-21T14:37:38.039Z,11.98
2023-05-21T14:40:08.407Z,12.15
2023-05-21T14:42:37.154Z,11.25
2023-05-21T14:45:18.119Z,11.27
2023-05-21T14:47:48.635Z,11.68
2023-05-21T14:50:19.300Z,11.93
2023-05-21T14:52:47.802Z,11.80
2023-05-21T14:55:18.699Z,11.93
2023-05-21T14:57:46.945Z,12.23
2023-05-21T15:00:15.851Z,11.52
2023-05-21T15:02:44.529Z,11.73
2023-05-21T15:05:12.849Z,11.82
2023-05-21T15:07:42.615Z,11.93
2023-05-21T15:10:11.579Z,11.70
2023-05-21T15:12:40.095Z,12.20
2023-05-21T15:15:09.564Z,12.68
2023-05-21T15:17:38.001Z,12.13
2023-05-21T15:20:07.487Z,11.63
2023-05-21T15:22:36.160Z,12.27
2023-05-21T15:25:06.917Z,19.13
2023-05-21T15:27:35.701Z,15.02
2023-05-21T15:30:05.000Z,16.25
2023-05-21T15:32:33.189Z,27.67
2023-05-21T15:35:01.585Z,19.52
2023-05-21T15:37:32.451Z,12.18
2023-05-21T15:40:00.976Z,72.10
2023-05-21T15:42:31.934Z,11.90
2023-05-21T15:45:00.518Z,12.13
2023-05-21T15:47:28.735Z,13.20
2023-05-21T15:49:58.780Z,12.13
2023-05-21T15:52:27.278Z,11.88
2023-05-21T15:54:55.599Z,11.45
2023-05-21T15:57:24.032Z,12.48
2023-05-21T15:59:54.287Z,12.75
2023-05-21T16:02:22.567Z,11.63
2023-05-21T16:04:52.234Z,11.38
2023-05-21T16:07:21.270Z,11.68
2023-05-21T16:09:49.481Z,11.23
2023-05-21T16:12:17.881Z,11.35
2023-05-21T16:14:46.541Z,10.10
2023-05-21T16:17:16.589Z,10.07
2023-05-21T16:19:44.944Z,10.60
2023-05-21T16:22:13.343Z,9.55
2023-05-21T16:24:41.705Z,9.48
2023-05-21T16:27:10.040Z,9.73
2023-05-21T16:29:40.719Z,10.52
2023-05-21T16:32:10.689Z,10.18
2023-05-21T16:34:40.629Z,10.85
2023-05-21T16:37:09.984Z,9.75
2023-05-21T16:39:38.845Z,10.60
2023-05-21T16:42:07.493Z,10.23
2023-05-21T16:44:37.060Z,10.00
2023-05-21T16:47:05.588Z,10.05
2023-05-21T16:49:34.260Z,10.90
2023-05-21T16:52:04.071Z,11.60
2023-05-21T16:54:32.254Z,10.77
2023-05-21T16:57:00.790Z,10.63
2023-05-21T16:59:29.644Z,11.23
2023-05-21T17:01:58.122Z,11.50
2023-05-21T17:04:26.712Z,10.48
2023-05-21T17:06:54.995Z,9.85
2023-05-21T17:09:24.691Z,11.85
2023-05-21T17:11:53.286Z,15.25
2023-05-21T17:14:32.998Z,13.65
2023-05-21T17:17:02.433Z,11.00
2023-05-21T17:19:30.899Z,11.13
2023-05-21T17:21:59.601Z,18.80
2023-05-21T17:24:29.399Z,16.33
2023-05-21T17:26:57.804Z,11.38
2023-05-21T17:29:26.171Z,11.88
2023-05-21T17:31:54.646Z,11.57
2023-05-21T17:34:24.632Z,10.70
2023-05-21T17:36:52.947Z,10.70
2023-05-21T17:39:21.421Z,10.40
2023-05-21T17:41:51.501Z,11.43
2023-05-21T17:44:20.587Z,11.27
2023-05-21T17:46:50.662Z,9.88
2023-05-21T17:49:19.253Z,9.63
2023-05-21T17:51:48.038Z,9.23
2023-05-21T17:54:16.675Z,9.80
2023-05-21T17:56:46.411Z,9.52
2023-05-21T17:59:17.138Z,10.18
2023-05-21T18:01:45.711Z,9.75
2023-05-21T18:04:14.380Z,10.13
2023-05-21T18:06:42.691Z,8.95
2023-05-21T18:09:14.513Z,9.15
2023-05-21T18:11:44.751Z,9.73
2023-05-21T18:14:13.216Z,9.73
2023-05-21T18:16:43.328Z,9.32
2023-05-21T18:19:12.010Z,9.25
2023-05-21T18:21:41.657Z,9.30
2023-05-21T18:24:10.275Z,10.40
2023-05-21T18:26:38.901Z,9.35
2023-05-21T18:29:07.236Z,9.48
2023-05-21T18:31:35.866Z,9.43
2023-05-21T18:34:05.889Z,9.82
2023-05-21T18:36:39.173Z,9.27
2023-05-21T18:39:08.284Z,9.00
2023-05-21T18:41:37.482Z,8.75
2023-05-21T18:44:06.466Z,9.05
2023-05-21T18:46:34.915Z,7.75
2023-05-21T18:49:03.312Z,8.32
2023-05-21T18:51:33.251Z,8.00
2023-05-21T18:54:01.662Z,8.45
2023-05-21T18:56:29.971Z,8.13
2023-05-21T18:58:58.854Z,8.00
2023-05-21T19:01:27.569Z,7.80
2023-05-21T19:03:55.861Z,8.77
2023-05-21T19:06:25.672Z,7.88
2023-05-21T19:08:55.795Z,7.75
2023-05-21T19:11:24.627Z,8.20
2023-05-21T19:13:52.932Z,7.93
2023-05-21T19:16:21.314Z,7.60
2023-05-21T19:18:49.708Z,7.80
2023-05-21T19:21:18.178Z,7.63
2023-05-21T19:23:53.421Z,8.10
2023-05-21T19:26:24.073Z,8.15
2023-05-21T19:28:53.865Z,8.15
2023-05-21T19:31:22.805Z,8.52
2023-05-21T19:33:51.428Z,8.38
2023-05-21T19:36:19.792Z,8.05
2023-05-21T19:38:49.237Z,7.63
2023-05-21T19:41:17.748Z,8.63
2023-05-21T19:43:47.584Z,8.32
2023-05-21T19:46:19.247Z,8.13
2023-05-21T19:48:49.016Z,8.07
2023-05-21T19:51:17.754Z,8.38
2023-05-21T19:53:46.110Z,8.02
2023-05-21T19:56:14.624Z,8.32
2023-05-21T19:58:47.180Z,8.65
2023-05-21T20:01:17.460Z,8.88
2023-05-21T20:03:46.325Z,8.35
2023-05-21T20:06:16.963Z,8.32
2023-05-21T20:08:45.319Z,8.45
2023-05-21T20:11:13.596Z,8.35
2023-05-21T20:13:42.584Z,8.80
2023-05-21T20:16:12.888Z,8.95
2023-05-21T20:18:46.807Z,8.90
2023-05-21T20:21:15.602Z,8.13
2023-05-21T20:23:43.800Z,8.25
2023-05-21T20:26:12.209Z,8.35
2023-05-21T20:28:41.465Z,8.55
2023-05-21T20:31:09.844Z,7.63
2023-05-21T20:33:40.051Z,7.93
2023-05-21T20:36:10.350Z,8.52
2023-05-21T20:38:38.665Z,7.72
2023-05-21T20:41:06.841Z,8.48
2023-05-21T20:43:37.469Z,8.65
2023-05-21T20:46:05.952Z,8.40
2023-05-21T20:48:34.270Z,8.50
2023-05-21T20:51:04.719Z,8.52
2023-05-21T20:53:34.351Z,7.43
2023-05-21T20:56:02.744Z,8.40
2023-05-21T20:58:31.876Z,7.22
2023-05-21T21:01:01.914Z,8.50
2023-05-21T21:03:33.935Z,8.15
2023-05-21T21:06:03.309Z,8.20
2023-05-21T21:08:34.836Z,8.55
2023-05-21T21:11:03.045Z,8.65
2023-05-21T21:13:31.321Z,8.70
2023-05-21T21:15:59.879Z,8.25
2023-05-21T21:18:28.156Z,8.40
2023-05-21T21:20:56.568Z,8.70
2023-05-21T21:23:25.503Z,8.48
2023-05-21T21:25:55.067Z,9.13
2023-05-21T21:28:23.401Z,9.80
2023-05-21T21:30:51.743Z,9.15
2023-05-21T21:33:19.961Z,9.40
2023-05-21T21:35:48.171Z,9.65
2023-05-21T21:38:16.572Z,8.77
2023-05-21T21:40:44.820Z,8.45
2023-05-21T21:43:14.389Z,9.10
2023-05-21T21:45:42.975Z,8.98
2023-05-21T21:48:11.633Z,8.57
2023-05-21T21:50:40.115Z,9.90
2023-05-21T21:53:10.145Z,8.98
2023-05-21T21:55:38.497Z,9.30
2023-05-21T21:58:06.803Z,9.55
2023-05-21T22:00:37.257Z,9.45
2023-05-21T22:03:05.899Z,10.20
2023-05-21T22:05:34.182Z,11.27
2023-05-21T22:08:04.179Z,10.27
2023-05-21T22:10:33.649Z,11.27
2023-05-21T22:13:02.737Z,11.55
2023-05-21T22:15:32.409Z,11.75
2023-05-21T22:18:02.608Z,10.65
2023-05-21T22:20:30.918Z,11.82
2023-05-21T22:23:00.130Z,12.48
2023-05-21T22:25:28.331Z,11.30
2023-05-21T22:27:56.542Z,12.20
2023-05-21T22:30:24.905Z,12.10
2023-05-21T22:32:53.122Z,12.77
2023-05-21T22:35:22.804Z,12.10
2023-05-21T22:37:51.552Z,12.85
2023-05-21T22:40:19.818Z,12.50
2023-05-21T22:42:48.266Z,13.50
2023-05-21T22:45:17.299Z,14.63
2023-05-21T22:47:45.532Z,14.55
2023-05-21T22:50:14.002Z,15.02
2023-05-21T22:52:43.914Z,15.50
2023-05-21T22:55:12.317Z,15.85
2023-05-21T22:57:40.641Z,15.60
2023-05-21T23:00:11.106Z,15.70
2023-05-21T23:02:39.743Z,15.30
2023-05-21T23:05:08.629Z,15.18
2023-05-21T23:07:37.350Z,15.35
2023-05-21T23:10:07.971Z,15.93
2023-05-21T23:12:36.351Z,15.73
2023-05-21T23:15:05.832Z,16.17
2023-05-21T23:17:34.052Z,15.95
2023-05-21T23:20:02.433Z,17.33
2023-05-21T23:22:31.805Z,16.50
2023-05-21T23:24:59.993Z,18.17
2023-05-21T23:27:29.695Z,18.08
2023-05-21T23:29:58.112Z,20.17
2023-05-21T23:32:27.383Z,20.27
2023-05-21T23:34:56.907Z,20.65
2023-05-21T23:37:25.330Z,21.52
2023-05-21T23:39:53.523Z,23.23
2023-05-21T23:42:21.799Z,24.77
2023-05-21T23:44:51.560Z,25.00
2023-05-21T23:47:19.928Z,27.17
2023-05-21T23:49:48.094Z,27.80
2023-05-21T23:52:17.529Z,28.17
2023-05-21T23:54:46.170Z,29.13
2023-05-21T23:57:14.388Z,30.00
2023-05-21T23:59:43.037Z,29.65
